Time;durP1;ratioP1;P1;durP2;ratioP2;P2;SDS_P1;SDS_P2;PMS_P1;PMS_P2;Temp;Humidity;BMP_temperature;BMP_pressure;BME280_temperature;BME280_humidity;BME280_pressure;Samples;Min_cycle;Max_cycle;Signal;HPM_P1;HPM_P2
2024/02/18 00:02:17;;;;;;;1999.90;999.90;;;10.40;99.90;;;;;;5115768;28;20038;-82
2024/02/18 00:04:43;;;;;;;1999.90;999.90;;;10.50;99.90;;;;;;5116982;28;20039;-82
2024/02/18 00:07:08;;;;;;;1999.90;999.90;;;10.40;99.90;;;;;;5097260;28;20028;-83
2024/02/18 00:09:34;;;;;;;1999.90;999.90;;;10.40;99.90;;;;;;5097028;28;20024;-83
2024/02/18 00:12:00;;;;;;;1999.90;999.90;;;10.50;99.90;;;;;;5117010;28;20019;-83
2024/02/18 00:14:25;;;;;;;1999.90;999.90;;;10.50;99.90;;;;;;5115611;28;20026;-82
2024/02/18 00:16:51;;;;;;;1999.90;999.90;;;10.50;99.90;;;;;;5115689;28;20024;-83
2024/02/18 00:19:16;;;;;;;1999.90;999.90;;;10.40;99.90;;;;;;5098061;28;20020;-83
2024/02/18 00:21:42;;;;;;;1999.90;999.90;;;10.40;99.90;;;;;;5121048;28;20076;-83
2024/02/18 00:24:08;;;;;;;1999.90;999.90;;;10.40;99.90;;;;;;5092964;28;20020;-83
2024/02/18 00:26:36;;;;;;;1999.90;999.90;;;10.50;99.90;;;;;;5098960;28;20016;-83
2024/02/18 00:29:02;;;;;;;1999.90;999.90;;;10.50;99.90;;;;;;5097740;28;20516;-83
2024/02/18 00:31:28;;;;;;;1999.90;999.90;;;10.60;99.90;;;;;;5096775;28;20031;-83
2024/02/18 00:33:53;;;;;;;1999.90;999.90;;;10.60;99.90;;;;;;5098262;28;20023;-82
2024/02/18 00:36:20;;;;;;;1999.90;999.90;;;10.70;99.90;;;;;;5096552;28;20024;-83
2024/02/18 00:38:46;;;;;;;1999.90;999.90;;;10.80;99.90;;;;;;5096821;28;20366;-82
2024/02/18 00:41:11;;;;;;;1999.90;999.90;;;10.80;99.90;;;;;;5096615;28;20077;-82
2024/02/18 00:43:37;;;;;;;1999.90;999.90;;;10.70;99.90;;;;;;5106211;28;20035;-83
2024/02/18 00:46:03;;;;;;;1999.90;999.90;;;10.70;99.90;;;;;;5115118;28;20059;-83
2024/02/18 00:48:28;;;;;;;1999.90;999.90;;;10.70;99.90;;;;;;5096576;28;20024;-82
2024/02/18 00:50:54;;;;;;;1999.90;999.90;;;10.70;99.90;;;;;;5103019;28;20032;-83
2024/02/18 00:53:20;;;;;;;1999.90;999.90;;;10.80;99.90;;;;;;5096673;28;20044;-83
2024/02/18 00:55:45;;;;;;;1999.90;999.90;;;10.80;99.90;;;;;;5096186;28;20032;-83
2024/02/18 00:58:11;;;;;;;1999.90;999.90;;;10.90;99.90;;;;;;5100616;28;20035;-83
2024/02/18 01:00:38;;;;;;;1999.90;999.90;;;10.90;99.90;;;;;;5095876;28;20027;-82
2024/02/18 01:03:04;;;;;;;1999.90;999.90;;;11.00;99.90;;;;;;5114791;28;20039;-83
2024/02/18 01:05:29;;;;;;;1999.90;999.90;;;10.90;99.90;;;;;;5096936;28;20436;-83
2024/02/18 01:07:55;;;;;;;1999.90;999.90;;;10.90;99.90;;;;;;5096191;28;20486;-83
2024/02/18 01:10:21;;;;;;;1999.90;999.90;;;10.90;99.90;;;;;;5114369;28;20062;-83
2024/02/18 01:12:47;;;;;;;1999.90;999.90;;;10.80;99.90;;;;;;5109234;28;20563;-82
2024/02/18 01:15:12;;;;;;;1999.90;999.90;;;10.80;99.90;;;;;;5096089;28;20027;-82
2024/02/18 01:17:38;;;;;;;1999.90;999.90;;;10.90;99.90;;;;;;5096081;28;20547;-83
2024/02/18 01:20:05;;;;;;;1999.90;999.90;;;10.90;99.90;;;;;;5115616;28;20526;-83
2024/02/18 01:22:31;;;;;;;1999.90;999.90;;;10.90;99.90;;;;;;5085147;28;20016;-82
2024/02/18 01:24:58;;;;;;;1999.90;999.90;;;10.90;99.90;;;;;;5095377;28;20027;-82
2024/02/18 01:27:23;;;;;;;1999.90;999.90;;;10.80;99.90;;;;;;5125626;28;20012;-82
2024/02/18 01:29:49;;;;;;;1999.90;999.90;;;10.80;99.90;;;;;;5097751;28;20034;-83
2024/02/18 01:32:14;;;;;;;1999.90;999.90;;;10.80;99.90;;;;;;5095734;28;20026;-82
2024/02/18 01:34:40;;;;;;;1999.90;999.90;;;10.80;99.90;;;;;;5098782;28;20012;-82
2024/02/18 01:37:06;;;;;;;1999.90;999.90;;;10.80;99.90;;;;;;5095159;28;20046;-83
2024/02/18 01:39:32;;;;;;;1999.90;999.90;;;11.00;99.90;;;;;;5114140;28;20102;-83
2024/02/18 01:41:58;;;;;;;1999.90;999.90;;;11.00;99.90;;;;;;5102378;28;20012;-82
2024/02/18 01:44:23;;;;;;;1999.90;999.90;;;11.10;99.90;;;;;;5115872;28;20046;-83
2024/02/18 01:46:50;;;;;;;1999.90;999.90;;;11.20;99.90;;;;;;5095602;28;20023;-83
2024/02/18 01:49:15;;;;;;;1999.90;999.90;;;11.30;99.90;;;;;;5097198;28;20119;-83
2024/02/18 01:51:42;;;;;;;1999.90;999.90;;;11.40;99.90;;;;;;5095590;28;20107;-82
2024/02/18 01:54:08;;;;;;;1999.90;999.90;;;11.40;99.90;;;;;;5095519;28;20694;-82
2024/02/18 01:56:34;;;;;;;1999.90;999.90;;;11.40;99.90;;;;;;5099388;28;20031;-82
2024/02/18 01:59:00;;;;;;;1999.90;999.90;;;11.40;99.90;;;;;;5113813;28;20027;-83
2024/02/18 02:01:27;;;;;;;1999.90;999.90;;;11.50;99.90;;;;;;5095864;28;20026;-83
2024/02/18 02:03:55;;;;;;;1999.90;999.90;;;11.50;99.90;;;;;;5115533;28;20035;-82
2024/02/18 02:06:21;;;;;;;1999.90;999.90;;;11.50;99.90;;;;;;5095064;28;20491;-83
2024/02/18 02:08:48;;;;;;;1999.90;999.90;;;11.50;99.90;;;;;;5095265;28;20039;-83
2024/02/18 02:11:14;;;;;;;1999.90;999.90;;;11.60;99.90;;;;;;5100960;28;20456;-83
2024/02/18 02:13:40;;;;;;;1999.90;999.90;;;11.80;99.90;;;;;;5116623;28;20035;-82
2024/02/18 02:16:06;;;;;;;1999.90;999.90;;;12.00;99.90;;;;;;5117588;28;20482;-83
2024/02/18 02:18:33;;;;;;;1999.90;999.90;;;12.10;99.90;;;;;;5118893;28;20510;-82
2024/02/18 02:20:59;;;;;;;1999.90;999.90;;;12.20;99.90;;;;;;5099121;28;20015;-83
2024/02/18 02:23:24;;;;;;;1999.90;999.90;;;12.20;99.90;;;;;;5111500;28;20008;-82
2024/02/18 02:25:51;;;;;;;1999.90;999.90;;;12.20;99.90;;;;;;5101142;28;20032;-83
2024/02/18 02:28:23;;;;;;;1999.90;999.90;;;12.20;99.90;;;;;;5117271;28;20026;-82
2024/02/18 02:30:49;;;;;;;1999.90;999.90;;;12.20;99.90;;;;;;5102324;28;20020;-83
2024/02/18 02:33:16;;;;;;;1999.90;999.90;;;12.20;99.90;;;;;;5128798;28;20039;-83
2024/02/18 02:35:43;;;;;;;1999.90;999.90;;;12.10;99.90;;;;;;5099085;28;20031;-82
2024/02/18 02:38:09;;;;;;;1999.90;999.90;;;12.10;99.90;;;;;;5098677;28;20101;-83
2024/02/18 02:40:34;;;;;;;1999.90;999.90;;;12.10;99.90;;;;;;5100236;28;20020;-83
2024/02/18 02:43:01;;;;;;;1999.90;999.90;;;12.10;99.90;;;;;;5098913;28;20016;-82
2024/02/18 02:45:27;;;;;;;1999.90;999.90;;;12.20;99.90;;;;;;5103466;28;20012;-82
2024/02/18 02:47:53;;;;;;;1999.90;999.90;;;12.30;99.90;;;;;;5118238;28;20077;-83
2024/02/18 02:50:20;;;;;;;1999.90;999.90;;;12.30;99.90;;;;;;5117054;28;20086;-83
2024/02/18 02:52:46;;;;;;;1999.90;999.90;;;12.40;99.90;;;;;;5101148;28;20482;-83
2024/02/18 02:55:12;;;;;;;1999.90;999.90;;;12.50;99.90;;;;;;5101553;28;20036;-82
2024/02/18 02:57:38;;;;;;;1999.90;999.90;;;12.40;99.90;;;;;;5098623;28;20027;-82
2024/02/18 03:00:09;;;;;;;1999.90;999.90;;;12.40;99.90;;;;;;5086611;28;20060;-82
2024/02/18 03:02:43;;;;;;;1999.90;999.90;;;12.40;99.90;;;;;;5080046;28;20513;-83
2024/02/18 03:05:09;;;;;;;1999.90;999.90;;;12.40;99.90;;;;;;5092080;28;20526;-83
2024/02/18 03:07:35;;;;;;;1999.90;999.90;;;12.40;99.90;;;;;;5076901;28;20020;-82
2024/02/18 03:10:02;;;;;;;1999.90;999.90;;;12.40;99.90;;;;;;5058997;28;20039;-83
2024/02/18 03:12:29;;;;;;;1999.90;999.90;;;12.50;99.90;;;;;;5057104;28;20044;-83
2024/02/18 03:14:54;;;;;;;1999.90;999.90;;;12.60;99.90;;;;;;5066813;28;20033;-82
2024/02/18 03:17:20;;;;;;;1999.90;999.90;;;12.70;99.90;;;;;;5088148;28;20104;-83
2024/02/18 03:19:45;;;;;;;1999.90;999.90;;;12.80;99.90;;;;;;5056550;28;20020;-82
2024/02/18 03:22:11;;;;;;;1999.90;999.90;;;12.80;99.90;;;;;;5064095;28;20025;-83
2024/02/18 03:24:40;;;;;;;1999.90;999.90;;;12.80;99.90;;;;;;5083808;28;20028;-83
2024/02/18 03:27:06;;;;;;;1999.90;999.90;;;12.90;99.90;;;;;;5076661;28;20028;-83
2024/02/18 03:29:32;;;;;;;1999.90;999.90;;;12.90;99.90;;;;;;5076790;28;20024;-83
2024/02/18 03:31:58;;;;;;;1999.90;999.90;;;12.80;99.90;;;;;;5096286;28;20031;-83
2024/02/18 03:34:24;;;;;;;1999.90;999.90;;;12.80;99.90;;;;;;5075572;28;20040;-83
2024/02/18 03:36:49;;;;;;;1999.90;999.90;;;12.80;99.90;;;;;;5056346;28;20170;-83
2024/02/18 03:39:15;;;;;;;1999.90;999.90;;;12.70;99.90;;;;;;5061580;28;20127;-83
2024/02/18 03:41:40;;;;;;;1999.90;999.90;;;12.70;99.90;;;;;;5074324;28;20024;-83
2024/02/18 03:44:06;;;;;;;1999.90;999.90;;;12.60;99.90;;;;;;5056359;28;20028;-82
2024/02/18 03:46:32;;;;;;;1999.90;999.90;;;12.60;99.90;;;;;;5057997;28;20029;-81
2024/02/18 03:48:57;;;;;;;1999.90;999.90;;;12.60;99.90;;;;;;5074330;28;20051;-82
2024/02/18 03:51:23;;;;;;;1999.90;999.90;;;12.60;99.90;;;;;;5056678;28;20032;-83
2024/02/18 03:53:49;;;;;;;1999.90;999.90;;;12.50;99.90;;;;;;5061379;28;20036;-82
2024/02/18 03:56:15;;;;;;;1999.90;999.90;;;12.50;99.90;;;;;;5056022;28;20024;-83
2024/02/18 03:58:40;;;;;;;1999.90;999.90;;;12.50;99.90;;;;;;5074151;28;20025;-82
2024/02/18 04:01:06;;;;;;;1999.90;999.90;;;12.50;99.90;;;;;;5060907;28;20031;-83
2024/02/18 04:03:32;;;;;;;1999.90;999.90;;;12.60;99.90;;;;;;5056254;28;20038;-82
2024/02/18 04:05:57;;;;;;;1999.90;999.90;;;12.60;99.90;;;;;;5016984;28;1130914;-82
2024/02/18 04:08:23;;;;;;;1999.90;999.90;;;12.60;99.90;;;;;;5063084;28;20032;-82
2024/02/18 04:10:49;;;;;;;1999.90;999.90;;;12.60;99.90;;;;;;5074820;28;20081;-83
2024/02/18 04:13:14;;;;;;;1999.90;999.90;;;12.60;99.90;;;;;;5076981;28;20515;-83
2024/02/18 04:15:41;;;;;;;1999.90;999.90;;;12.60;99.90;;;;;;5078379;28;20032;-83
2024/02/18 04:18:07;;;;;;;1999.90;999.90;;;12.60;99.90;;;;;;5076600;28;20028;-83
2024/02/18 04:20:35;;;;;;;1999.90;999.90;;;12.60;99.90;;;;;;5076811;28;20027;-83
2024/02/18 04:23:03;;;;;;;1999.90;999.90;;;12.60;99.90;;;;;;5076594;28;20037;-83
2024/02/18 04:25:28;;;;;;;1999.90;999.90;;;12.60;99.90;;;;;;5075146;28;20487;-82
2024/02/18 04:27:54;;;;;;;1999.90;999.90;;;12.60;99.90;;;;;;5076926;28;20032;-83
2024/02/18 04:30:19;;;;;;;1999.90;999.90;;;12.60;99.90;;;;;;5086683;28;20473;-82
2024/02/18 04:32:45;;;;;;;1999.90;999.90;;;12.70;99.90;;;;;;5089541;28;20096;-83
2024/02/18 04:35:11;;;;;;;1999.90;999.90;;;12.80;99.90;;;;;;5073651;28;20539;-83
2024/02/18 04:37:36;;;;;;;1999.90;999.90;;;12.80;99.90;;;;;;5058132;28;20029;-83
2024/02/18 04:40:06;;;;;;;1999.90;999.90;;;12.90;99.90;;;;;;5092406;28;20016;-82
2024/02/18 04:42:32;;;;;;;1999.90;999.90;;;13.00;99.90;;;;;;5076187;28;20115;-83
2024/02/18 04:44:57;;;;;;;1999.90;999.90;;;13.10;99.90;;;;;;5083955;28;20082;-83
2024/02/18 04:47:25;;;;;;;1999.90;999.90;;;13.10;99.90;;;;;;5076534;28;20509;-83
2024/02/18 04:49:53;;;;;;;1999.90;999.90;;;13.20;99.90;;;;;;5094480;28;20368;-83
2024/02/18 04:52:19;;;;;;;1999.90;999.90;;;13.20;99.90;;;;;;5077838;28;20035;-83
2024/02/18 04:54:45;;;;;;;1999.90;999.90;;;13.20;99.90;;;;;;5076136;28;20106;-83
2024/02/18 04:57:10;;;;;;;1999.90;999.90;;;13.30;99.90;;;;;;5076169;28;20020;-83
2024/02/18 04:59:36;;;;;;;1999.90;999.90;;;13.20;99.90;;;;;;5086160;28;20118;-83
2024/02/18 05:02:02;;;;;;;1999.90;999.90;;;13.20;99.90;;;;;;5075947;28;20020;-83
2024/02/18 05:04:31;;;;;;;1999.90;999.90;;;13.30;99.90;;;;;;5094324;28;20103;-83
2024/02/18 05:06:57;;;;;;;1999.90;999.90;;;13.30;99.90;;;;;;5076649;28;20109;-83
2024/02/18 05:09:23;;;;;;;1999.90;999.90;;;13.30;99.90;;;;;;5075534;28;20062;-83
2024/02/18 05:11:49;;;;;;;1999.90;999.90;;;13.30;99.90;;;;;;5075803;28;20443;-83
2024/02/18 05:14:14;;;;;;;1999.90;999.90;;;13.30;99.90;;;;;;5097421;28;20483;-82
2024/02/18 05:16:40;;;;;;;1999.90;999.90;;;13.30;99.90;;;;;;5075507;28;20107;-83
2024/02/18 05:19:05;;;;;;;1999.90;999.90;;;13.30;99.90;;;;;;5075886;28;20027;-82
2024/02/18 05:21:31;;;;;;;1999.90;999.90;;;13.30;99.90;;;;;;5087628;28;20111;-83
2024/02/18 05:23:57;;;;;;;1999.90;999.90;;;13.40;99.90;;;;;;5055657;28;20039;-83
2024/02/18 05:26:25;;;;;;;1999.90;999.90;;;13.40;99.90;;;;;;5073463;28;20031;-83
2024/02/18 05:28:51;;;;;;;1999.90;999.90;;;13.40;99.90;;;;;;5057277;28;20086;-83
2024/02/18 05:31:22;;;;;;;1999.90;999.90;;;13.50;99.90;;;;;;5073642;28;20523;-82
2024/02/18 05:33:49;;;;;;;1999.90;999.90;;;13.50;99.90;;;;;;5087443;28;20502;-83
2024/02/18 05:36:15;;;;;;;1999.90;999.90;;;13.50;99.90;;;;;;5095565;28;20051;-83
2024/02/18 05:38:41;;;;;;;1999.90;999.90;;;13.50;99.90;;;;;;5093574;28;20028;-82
2024/02/18 05:41:06;;;;;;;1999.90;999.90;;;13.60;99.90;;;;;;5075738;28;20801;-83
2024/02/18 05:43:32;;;;;;;1999.90;999.90;;;13.60;99.90;;;;;;5080389;28;20123;-82
2024/02/18 05:45:58;;;;;;;1999.90;999.90;;;13.60;99.90;;;;;;5075344;28;20032;-82
2024/02/18 05:48:23;;;;;;;1999.90;999.90;;;13.60;99.90;;;;;;5094042;28;20494;-83
2024/02/18 05:50:49;;;;;;;1999.90;999.90;;;13.60;99.90;;;;;;5081113;28;20119;-83
2024/02/18 05:53:15;;;;;;;1999.90;999.90;;;13.60;99.90;;;;;;5076214;28;20028;-83
2024/02/18 05:55:40;;;;;;;1999.90;999.90;;;13.50;99.90;;;;;;5094040;28;20028;-82
2024/02/18 05:58:06;;;;;;;1999.90;999.90;;;13.30;99.90;;;;;;5095507;28;20020;-82
2024/02/18 06:00:32;;;;;;;1999.90;999.90;;;13.10;99.90;;;;;;5075592;28;20028;-83
2024/02/18 06:02:57;;;;;;;1999.90;999.90;;;13.10;99.90;;;;;;5075479;28;20023;-83
2024/02/18 06:05:23;;;;;;;1999.90;999.90;;;13.10;99.90;;;;;;5100862;28;20044;-82
2024/02/18 06:07:49;;;;;;;1999.90;999.90;;;13.10;99.90;;;;;;5095553;28;20573;-83
2024/02/18 06:10:14;;;;;;;1999.90;999.90;;;13.20;99.90;;;;;;5094599;28;20043;-82
2024/02/18 06:12:43;;;;;;;1999.90;999.90;;;13.10;99.90;;;;;;5102078;28;20008;-83
2024/02/18 06:15:09;;;;;;;1999.90;999.90;;;13.10;99.90;;;;;;5095392;28;20044;-82
2024/02/18 06:17:35;;;;;;;1999.90;999.90;;;13.00;99.90;;;;;;5095996;28;20030;-83
2024/02/18 06:20:02;;;;;;;1999.90;999.90;;;12.90;99.90;;;;;;5098038;28;20015;-82
2024/02/18 06:22:28;;;;;;;1999.90;999.90;;;12.90;99.90;;;;;;5085166;28;20024;-82
2024/02/18 06:24:54;;;;;;;1999.90;999.90;;;12.90;99.90;;;;;;5093177;28;20040;-82
2024/02/18 06:27:19;;;;;;;1999.90;999.90;;;13.00;99.90;;;;;;5083600;28;20110;-82
2024/02/18 06:29:45;;;;;;;1999.90;999.90;;;13.10;99.90;;;;;;5103942;28;20031;-82
2024/02/18 06:32:14;;;;;;;1999.90;999.90;;;13.10;99.90;;;;;;5114401;28;20031;-83
2024/02/18 06:34:39;;;;;;;1999.90;999.90;;;13.10;99.90;;;;;;5120370;28;20011;-82
2024/02/18 06:37:05;;;;;;;1999.90;999.90;;;13.20;99.90;;;;;;5098649;28;20056;-82
2024/02/18 06:39:30;;;;;;;1999.90;999.90;;;13.20;99.90;;;;;;5113754;28;20034;-82
2024/02/18 06:41:56;;;;;;;1999.90;999.90;;;13.20;99.90;;;;;;5120033;28;20043;-82
2024/02/18 06:44:22;;;;;;;1999.90;999.90;;;13.30;99.90;;;;;;5096953;28;20035;-83
2024/02/18 06:46:51;;;;;;;1999.90;999.90;;;13.30;99.90;;;;;;5095790;28;20110;-82
2024/02/18 06:49:16;;;;;;;1999.90;999.90;;;13.40;99.90;;;;;;5099716;28;20011;-82
2024/02/18 06:51:42;;;;;;;1999.90;999.90;;;13.30;99.90;;;;;;5115383;28;20066;-82
2024/02/18 06:54:08;;;;;;;1999.90;999.90;;;13.30;99.90;;;;;;5095175;28;20036;-82
2024/02/18 06:56:34;;;;;;;1999.90;999.90;;;13.30;99.90;;;;;;5102949;28;20020;-81
2024/02/18 06:58:59;;;;;;;1999.90;999.90;;;13.40;99.90;;;;;;5096866;28;20072;-82
2024/02/18 07:01:25;;;;;;;1999.90;999.90;;;13.40;99.90;;;;;;5117320;28;20027;-82
2024/02/18 07:03:51;;;;;;;1999.90;999.90;;;13.40;99.90;;;;;;5111466;28;20020;-82
2024/02/18 07:06:18;;;;;;;1999.90;999.90;;;13.40;99.90;;;;;;5100048;28;20055;-82
2024/02/18 07:08:44;;;;;;;1999.90;999.90;;;13.40;99.90;;;;;;5097933;28;20520;-82
2024/02/18 07:11:10;;;;;;;1999.90;999.90;;;13.40;99.90;;;;;;5107469;28;20079;-82
2024/02/18 07:13:36;;;;;;;1999.90;999.90;;;13.40;99.90;;;;;;5106165;28;20027;-82
2024/02/18 07:16:05;;;;;;;1999.90;999.90;;;13.40;99.90;;;;;;5100088;28;20513;-83
2024/02/18 07:18:31;;;;;;;1999.90;999.90;;;13.40;99.90;;;;;;5096804;28;20024;-82
2024/02/18 07:20:57;;;;;;;1999.90;999.90;;;13.40;99.90;;;;;;5085932;28;20039;-82
2024/02/18 07:23:22;;;;;;;1999.90;999.90;;;13.50;99.90;;;;;;5076445;28;20024;-82
2024/02/18 07:25:48;;;;;;;1999.90;999.90;;;13.50;99.90;;;;;;5098431;28;20395;-82
2024/02/18 07:28:15;;;;;;;1999.90;999.90;;;13.50;99.90;;;;;;5099973;28;20032;-83
2024/02/18 07:30:41;;;;;;;1999.90;999.90;;;13.60;99.90;;;;;;5098651;28;20403;-83
2024/02/18 07:33:07;;;;;;;1999.90;999.90;;;13.60;99.90;;;;;;5100980;28;20028;-82
2024/02/18 07:35:33;;;;;;;1999.90;999.90;;;13.70;99.90;;;;;;5099350;28;20031;-82
2024/02/18 07:37:58;;;;;;;1999.90;999.90;;;13.60;99.90;;;;;;5098267;28;20024;-83
2024/02/18 07:40:24;;;;;;;1999.90;999.90;;;13.60;99.90;;;;;;5099597;28;20043;-82
2024/02/18 07:42:50;;;;;;;1999.90;999.90;;;13.50;99.90;;;;;;5098221;28;20024;-82
2024/02/18 07:45:15;;;;;;;1999.90;999.90;;;13.50;99.90;;;;;;5116555;28;20027;-82
2024/02/18 07:47:44;;;;;;;1999.90;999.90;;;13.60;99.90;;;;;;5117779;28;20103;-82
2024/02/18 07:50:10;;;;;;;1999.90;999.90;;;13.70;99.90;;;;;;5116279;28;20024;-83
2024/02/18 07:52:36;;;;;;;1999.90;999.90;;;13.80;99.90;;;;;;5094445;28;20017;-83
2024/02/18 07:55:02;;;;;;;1999.90;999.90;;;13.90;99.90;;;;;;5104826;28;20043;-82
2024/02/18 07:57:28;;;;;;;1999.90;999.90;;;14.00;99.90;;;;;;5081726;28;20028;-82
2024/02/18 07:59:54;;;;;;;1999.90;999.90;;;14.10;99.90;;;;;;5077865;28;20031;-82
2024/02/18 08:02:19;;;;;;;1999.90;999.90;;;14.30;99.90;;;;;;5087055;28;20012;-82
2024/02/18 08:04:45;;;;;;;1999.90;999.90;;;14.40;99.90;;;;;;5079376;28;20036;-82
2024/02/18 08:07:10;;;;;;;1999.90;999.90;;;14.50;99.90;;;;;;5116171;28;20026;-82
2024/02/18 08:09:36;;;;;;;1999.90;999.90;;;14.60;99.90;;;;;;5101912;28;20019;-82
2024/02/18 08:12:02;;;;;;;1999.90;999.90;;;14.70;99.90;;;;;;5097456;28;20016;-83
2024/02/18 08:14:27;;;;;;;1999.90;999.90;;;14.90;99.90;;;;;;5097118;28;20081;-82
2024/02/18 08:16:55;;;;;;;1999.90;999.90;;;14.90;99.90;;;;;;5102981;28;20038;-82
2024/02/18 08:19:20;;;;;;;1999.90;999.90;;;14.80;99.90;;;;;;5098972;28;20066;-83
2024/02/18 08:21:46;;;;;;;1999.90;999.90;;;14.90;99.90;;;;;;5093072;28;20490;-83
2024/02/18 08:24:12;;;;;;;1999.90;999.90;;;14.90;99.90;;;;;;5074180;28;20028;-82
2024/02/18 08:26:37;;;;;;;1999.90;999.90;;;15.00;99.90;;;;;;5073524;28;20032;-82
2024/02/18 08:29:03;;;;;;;1999.90;999.90;;;15.10;99.90;;;;;;5056625;28;20019;-82
2024/02/18 08:31:29;;;;;;;1999.90;999.90;;;15.20;99.90;;;;;;5090722;28;20039;-83
2024/02/18 08:33:54;;;;;;;1999.90;999.90;;;15.30;99.90;;;;;;5079407;28;20028;-82
2024/02/18 08:36:20;;;;;;;1999.90;999.90;;;15.40;99.90;;;;;;5094180;28;20410;-83
2024/02/18 08:38:47;;;;;;;1999.90;999.90;;;15.50;99.90;;;;;;5076273;28;20073;-83
2024/02/18 08:41:13;;;;;;;1999.90;999.90;;;15.50;99.90;;;;;;5078278;28;20039;-82
2024/02/18 08:43:42;;;;;;;1999.90;999.90;;;15.60;99.90;;;;;;5076309;28;20024;-82
2024/02/18 08:46:08;;;;;;;1999.90;999.90;;;15.60;99.90;;;;;;5076171;28;20042;-83
2024/02/18 08:48:38;;;;;;;1999.90;999.90;;;15.80;99.90;;;;;;5095718;28;20205;-83
2024/02/18 08:51:08;;;;;;;1999.90;999.90;;;16.50;99.90;;;;;;5076357;28;20025;-83
2024/02/18 08:53:34;;;;;;;1999.90;999.90;;;17.70;99.90;;;;;;5085690;28;20012;-80
2024/02/18 08:55:59;;;;;;;1999.90;999.90;;;19.50;99.90;;;;;;5096273;28;20042;-80
2024/02/18 08:58:25;;;;;;;1999.90;999.90;;;18.20;99.90;;;;;;5094363;28;20046;-80
2024/02/18 09:00:51;;;;;;;1999.90;999.90;;;16.50;99.90;;;;;;5095533;28;20029;-81
2024/02/18 09:03:16;;;;;;;1999.90;999.90;;;15.20;99.90;;;;;;5075762;28;20475;-80
2024/02/18 09:05:42;;;;;;;1999.90;999.90;;;14.60;99.90;;;;;;5093856;28;20059;-82
2024/02/18 09:08:10;;;;;;;1999.90;999.90;;;14.20;99.90;;;;;;5075684;28;20058;-83
2024/02/18 09:10:37;;;;;;;1999.90;999.90;;;14.00;99.90;;;;;;5085881;28;20034;-82
2024/02/18 09:13:02;;;;;;;1999.90;999.90;;;13.90;99.90;;;;;;5079526;28;20029;-82
2024/02/18 09:15:28;;;;;;;1999.90;999.90;;;14.00;99.90;;;;;;5075762;28;20078;-83
2024/02/18 09:17:56;;;;;;;1999.90;999.90;;;14.10;99.90;;;;;;5077494;28;20028;-82
2024/02/18 09:20:22;;;;;;;1999.90;999.90;;;13.90;99.90;;;;;;5094030;28;20031;-82
2024/02/18 09:22:48;;;;;;;1999.90;999.90;;;13.60;99.90;;;;;;5087559;28;20066;-83
2024/02/18 09:25:13;;;;;;;1999.90;999.90;;;13.60;99.90;;;;;;5099633;28;20019;-82
2024/02/18 09:27:39;;;;;;;1999.90;999.90;;;13.50;99.90;;;;;;5095891;28;20164;-84
2024/02/18 09:30:05;;;;;;;1999.90;999.90;;;13.30;99.90;;;;;;5112666;28;20554;-82
2024/02/18 09:32:31;;;;;;;1999.90;999.90;;;13.10;99.90;;;;;;5114945;28;20027;-82
2024/02/18 09:34:56;;;;;;;1999.90;999.90;;;12.70;99.90;;;;;;5113095;28;20038;-82
2024/02/18 09:37:22;;;;;;;1999.90;999.90;;;12.60;99.90;;;;;;5114768;28;20034;-82
2024/02/18 09:39:48;;;;;;;1999.90;999.90;;;12.50;99.90;;;;;;5113439;28;20027;-83
2024/02/18 09:42:14;;;;;;;1999.90;999.90;;;12.30;99.90;;;;;;5114278;28;20019;-83
2024/02/18 09:44:42;;;;;;;1999.90;999.90;;;12.30;99.90;;;;;;5112664;28;20027;-82
2024/02/18 09:47:09;;;;;;;1999.90;999.90;;;12.30;99.90;;;;;;5101719;28;20470;-82
2024/02/18 09:49:35;;;;;;;1999.90;999.90;;;12.30;99.90;;;;;;5112825;28;20024;-82
2024/02/18 09:52:02;;;;;;;1999.90;999.90;;;12.30;99.90;;;;;;5115467;28;20030;-83
2024/02/18 09:54:30;;;;;;;1999.90;999.90;;;12.30;99.90;;;;;;5111290;28;20032;-83
2024/02/18 09:56:55;;;;;;;1999.90;999.90;;;12.30;99.90;;;;;;5113938;28;20024;-83
2024/02/18 09:59:22;;;;;;;1999.90;999.90;;;12.40;99.90;;;;;;5119451;28;20022;-82
2024/02/18 10:01:53;;;;;;;1999.90;999.90;;;12.50;99.90;;;;;;5115610;28;20024;-82
2024/02/18 10:04:19;;;;;;;1999.90;999.90;;;12.40;99.90;;;;;;5112278;28;20036;-83
2024/02/18 10:06:45;;;;;;;1999.90;999.90;;;12.30;99.90;;;;;;5120089;28;20034;-83
2024/02/18 10:09:10;;;;;;;1999.90;999.90;;;12.10;99.90;;;;;;5124622;28;20051;-82
2024/02/18 10:11:36;;;;;;;1999.90;999.90;;;12.00;99.90;;;;;;5115843;28;20085;-82
2024/02/18 10:14:04;;;;;;;1999.90;999.90;;;12.00;99.90;;;;;;5115767;28;20034;-83
2024/02/18 10:16:29;;;;;;;1999.90;999.90;;;12.10;99.90;;;;;;5117786;28;20034;-84
2024/02/18 10:18:55;;;;;;;1999.90;999.90;;;12.10;99.90;;;;;;5133942;28;20023;-83
2024/02/18 10:21:21;;;;;;;1999.90;999.90;;;12.20;99.90;;;;;;5115543;28;20012;-82
2024/02/18 10:23:49;;;;;;;1999.90;999.90;;;12.40;99.90;;;;;;5122607;28;20069;-82
2024/02/18 10:26:14;;;;;;;1999.90;999.90;;;12.50;99.90;;;;;;5095047;28;20035;-83
2024/02/18 10:28:40;;;;;;;1999.90;999.90;;;12.50;99.90;;;;;;5113172;28;20027;-82
2024/02/18 10:31:09;;;;;;;1999.90;999.90;;;12.60;99.90;;;;;;5097716;28;20505;-83
2024/02/18 10:33:35;;;;;;;1999.90;999.90;;;12.60;99.90;;;;;;5114303;28;20470;-83
2024/02/18 10:36:08;;;;;;;1999.90;999.90;;;12.70;99.90;;;;;;5116933;28;20111;-82
2024/02/18 10:38:44;;;;;;;1999.90;999.90;;;12.80;99.90;;;;;;5118424;28;20509;-83
2024/02/18 10:41:16;;;;;;;1999.90;999.90;;;12.80;99.90;;;;;;5098435;28;20030;-83
2024/02/18 10:43:56;;;;;;;1999.90;999.90;;;12.80;99.90;;;;;;5098262;28;20110;-82
2024/02/18 10:46:24;;;;;;;1999.90;999.90;;;12.70;99.90;;;;;;5116329;28;20066;-83
2024/02/18 10:48:59;;;;;;;1999.90;999.90;;;12.80;99.90;;;;;;5117673;28;20027;-83
2024/02/18 10:51:48;;;;;;;1999.90;999.90;;;12.70;99.90;;;;;;5098157;28;20073;-82
2024/02/18 10:54:47;;;;;;;1999.90;999.90;;;12.70;99.90;;;;;;5116456;28;20386;-82
2024/02/18 10:57:16;;;;;;;1999.90;999.90;;;12.70;99.90;;;;;;5116452;28;20047;-82
2024/02/18 10:59:59;;;;;;;1999.90;999.90;;;12.80;99.90;;;;;;5097964;28;20015;-82
2024/02/18 11:02:33;;;;;;;1999.90;999.90;;;12.90;99.90;;;;;;5099658;28;20078;-83
2024/02/18 11:04:59;;;;;;;1999.90;999.90;;;13.00;99.90;;;;;;5115515;28;20043;-83
2024/02/18 11:07:26;;;;;;;1999.90;999.90;;;13.00;99.90;;;;;;5097660;28;20122;-82
2024/02/18 11:09:55;;;;;;;1999.90;999.90;;;13.00;99.90;;;;;;5097721;28;20049;-84
2024/02/18 11:12:22;;;;;;;1999.90;999.90;;;13.00;99.90;;;;;;5098505;28;20074;-82
2024/02/18 11:14:48;;;;;;;1999.90;999.90;;;12.90;99.90;;;;;;5101761;28;20028;-83
2024/02/18 11:17:16;;;;;;;1999.90;999.90;;;12.90;99.90;;;;;;5098135;28;20024;-83
2024/02/18 11:19:42;;;;;;;1999.90;999.90;;;13.00;99.90;;;;;;5116401;28;20023;-82
2024/02/18 11:22:09;;;;;;;1999.90;999.90;;;13.20;99.90;;;;;;5102503;28;20030;-82
2024/02/18 11:24:35;;;;;;;1999.90;999.90;;;13.20;99.90;;;;;;5096012;28;20055;-84
2024/02/18 11:27:04;;;;;;;1999.90;999.90;;;13.30;99.90;;;;;;5094764;28;20497;-83
2024/02/18 11:29:29;;;;;;;1999.90;999.90;;;13.40;99.90;;;;;;5098105;28;20000;-83
2024/02/18 11:31:55;;;;;;;1999.90;999.90;;;13.50;99.90;;;;;;5095980;28;20031;-82
2024/02/18 11:34:21;;;;;;;1999.90;999.90;;;13.40;99.90;;;;;;5078126;28;20517;-83
2024/02/18 11:36:47;;;;;;;1999.90;999.90;;;13.40;99.90;;;;;;5082541;28;20040;-84
2024/02/18 11:39:15;;;;;;;1999.90;999.90;;;13.40;99.90;;;;;;5080105;28;20030;-82
2024/02/18 11:41:42;;;;;;;1999.90;999.90;;;13.30;99.90;;;;;;5077606;28;20174;-83
2024/02/18 11:44:10;;;;;;;1999.90;999.90;;;13.30;99.90;;;;;;5080813;28;20008;-83
2024/02/18 11:46:43;;;;;;;1999.90;999.90;;;13.30;99.90;;;;;;5094840;28;20123;-82
2024/02/18 11:49:08;;;;;;;1999.90;999.90;;;13.30;99.90;;;;;;5077325;28;20035;-82
2024/02/18 11:51:36;;;;;;;1999.90;999.90;;;13.30;99.90;;;;;;5077648;28;20031;-82
2024/02/18 11:54:04;;;;;;;1999.90;999.90;;;13.20;99.90;;;;;;5085211;28;20073;-82
2024/02/18 11:56:29;;;;;;;1999.90;999.90;;;13.20;99.90;;;;;;5077211;28;20430;-83